»·PEaware :: N614R L88-KSBP

N614R :: L88-KSBP

FLIGHT INFORMATION

Flight Status: Arrived
Operator: Privately registered:
United States
More flights under this callsign
Pilot: Rob R. (23322)
Aircraft: CESSNA 172 SKYHAWK
(C172)
More flights by this aircraft type
Origin: L88 New Cuyama
United States
Destination: KSBP San Luis Co Regl
United States
More flights between these airports :: More routes between these airports
Route:
File this flight plan on PilotEdge
Remarks: CAT 2
Altitude:
(Current/Filed)
5,000ft
Speed:
(Current/Filed)
115kts
Departed: 09-Feb-19 06:52 PM
Arrived: 09-Feb-19 07:27 PM
Distance/Time
Traveled:
50nm/0:35
Distance/Time
To Go:
Arrived

Flight Plot

Page will automatically refresh every two minutes.


Map Options




Map Legend


Flown Route
Filed Route
Departure Airport
Arrival Airport
Navaid (VOR, NDB)
Fix

Horizontal Profiles

Position Reports

Time Latitude Longitude Heading Altitude Ground
Speed
09-Feb-19 18:41 34.942856 -119.690285 204 2156ft 0kts
09-Feb-19 18:42 34.942856 -119.690285 204 2156ft 0kts
09-Feb-19 18:43 34.942853 -119.690733 284 2156ft 8kts
09-Feb-19 18:44 34.942861 -119.690947 229 2155ft 0kts
09-Feb-19 18:45 34.942856 -119.690285 204 2156ft 0kts
09-Feb-19 18:46 34.942856 -119.690285 204 2156ft 0kts
09-Feb-19 18:47 34.942856 -119.690285 204 2156ft 0kts
09-Feb-19 18:48 34.942811 -119.691070 228 2155ft 8kts
09-Feb-19 18:49 34.940466 -119.686868 115 2171ft 21kts
09-Feb-19 18:50 34.937770 -119.680326 70 2199ft 5kts
09-Feb-19 18:51 34.938772 -119.682680 296 2189ft 41kts
09-Feb-19 18:52 34.945689 -119.706585 291 3005ft 76kts
09-Feb-19 18:53 34.953180 -119.732107 290 3914ft 82kts
09-Feb-19 18:54 34.962592 -119.760131 296 4150ft 96kts
09-Feb-19 18:55 34.973936 -119.797476 288 4082ft 128kts
09-Feb-19 18:56 34.988680 -119.837399 298 4008ft 129kts
09-Feb-19 18:57 35.005444 -119.876141 299 3956ft 129kts
09-Feb-19 18:58 35.020120 -119.916093 298 3902ft 129kts
09-Feb-19 18:59 35.039248 -119.953226 305 3862ft 129kts
09-Feb-19 19:00 35.062139 -119.986320 307 3921ft 123kts
09-Feb-19 19:01 35.079312 -120.017537 293 4672ft 84kts
09-Feb-19 19:02 35.087018 -120.042612 279 5404ft 80kts
09-Feb-19 19:03 35.090542 -120.078002 278 5385ft 126kts
09-Feb-19 19:04 35.099430 -120.119346 291 5399ft 125kts
09-Feb-19 19:05 35.109783 -120.159245 282 5406ft 126kts
09-Feb-19 19:06 35.120580 -120.199973 292 5420ft 125kts
09-Feb-19 19:07 35.134116 -120.239380 292 5432ft 125kts
09-Feb-19 19:08 35.147311 -120.278630 294 5444ft 126kts
09-Feb-19 19:09 35.161211 -120.317749 286 5541ft 125kts
09-Feb-19 19:10 35.170187 -120.359921 286 5593ft 128kts
09-Feb-19 19:11 35.183185 -120.401004 292 5627ft 130kts
09-Feb-19 19:12 35.201266 -120.438908 309 5666ft 129kts
09-Feb-19 19:13 35.223151 -120.473562 290 5666ft 130kts
09-Feb-19 19:14 35.218954 -120.511794 203 4141ft 130kts
09-Feb-19 19:15 35.185112 -120.507106 148 3228ft 132kts
09-Feb-19 19:16 35.171306 -120.470602 77 3510ft 125kts
09-Feb-19 19:17 35.172902 -120.425128 104 3320ft 131kts
09-Feb-19 19:18 35.162268 -120.384990 188 3198ft 122kts
09-Feb-19 19:19 35.161737 -120.424131 286 3033ft 130kts
09-Feb-19 19:20 35.172219 -120.465585 287 2947ft 127kts
09-Feb-19 19:21 35.188701 -120.503997 296 2711ft 134kts
09-Feb-19 19:22 35.189785 -120.546640 263 1243ft 128kts
09-Feb-19 19:23 35.200520 -120.577677 311 1203ft 87kts
09-Feb-19 19:24 35.212943 -120.600311 306 1023ft 77kts
09-Feb-19 19:25 35.226108 -120.621677 305 550ft 68kts
09-Feb-19 19:26 35.235657 -120.638074 300 216ft 25kts
09-Feb-19 19:27 35.237505 -120.639915 10 216ft 0kts
09-Feb-19 19:28 35.237760 -120.639199 291 216ft 0kts
09-Feb-19 19:29 35.237760 -120.639199 291 216ft 0kts
09-Feb-19 19:30 35.237760 -120.639199 291 216ft 0kts
09-Feb-19 19:31 35.237760 -120.639199 291 216ft 0kts
09-Feb-19 19:32 35.237760 -120.639199 291 216ft 0kts
09-Feb-19 19:33 35.237760 -120.639199 291 216ft 0kts
09-Feb-19 19:34 35.237760 -120.639199 291 216ft 0kts
09-Feb-19 19:35 35.237760 -120.639199 291 216ft 0kts
09-Feb-19 19:36 34.942856 -119.690285 204 2156ft 0kts
09-Feb-19 19:37 35.233256 -120.634038 306 237ft 60kts
09-Feb-19 19:38 35.207226 -120.589536 301 1182ft 75kts
09-Feb-19 19:39 35.212544 -120.599640 306 1039ft 76kts
09-Feb-19 19:40 35.235348 -120.637567 310 216ft 29kts

Navigation Log

Ident Type
Flight plan parsing failed, navigation log unavailable